Universal City, TX (78150)

11:55 PM CST on February 27, 2015 (GMT -0600)
Randolph Air Force Base | Change Station
CLOSE
Current Station
Airport
Location: Randolph AFB,
Elevation: 761 ft
Nearby Weather Stations
Active Advisory: Winter Weather Advisory

Elev 761 ft 29.53 °N, 98.28 °W | Updated 14 minutes ago

Overcast
Overcast
32 °F
Feels Like 22 °F
N
15
Wind Variable Wind from NNE

Today
High -- | Low -- °F
--% Chance of Precip.
Yesterday
High -- | Low -- °F
Precip. -- in
7:01 AM 6:31 PM
Waxing Gibbous, 75% visible
Pressure 30.29 in
Visibility 10.0 miles
Clouds Overcast 1400 ft
Windchill 22 °F
Dew Point 28 °F
Humidity 87%
Rainfall 0.00 in
Snow Depth Not available.
UV 0 out of 12
Pollen 8.30 out of 12
Air Quality Not available.
Flu Activity Not available.
SPECI KRND 280541Z AUTO 02013KT 10SM OVC014 00/M02 A3029 RMK AO2 DZE03DZB05E21

More Conditions Fewer Conditions

Pressure 30.29 in
Visibility 10.0 miles
Clouds Overcast 1400 ft
Windchill 22 °F
Dew Point 28 °F
Humidity 87%
Rainfall 0.00 in
Snow Depth Not available.
UV 0 out of 12
Pollen 8.30 out of 12
Air Quality Not available.
Flu Activity Not available.
SPECI KRND 280541Z AUTO 02013KT 10SM OVC014 00/M02 A3029 RMK AO2 DZE03DZB05E21

More Conditions Fewer Conditions

Nowcast | as of 11:30 PM CST on February 27, 2015

Winter Weather Advisory in effect until 10 am CST Saturday... Through the overnight hours...patchy freezing drizzle will develop over The Hill Country. Ice accumulations are possible on elevated surfaces...including bridges and overpasses. Motorists driving through The Hill Country should slow down as they encounter elevated roadways...and be alert for patchy slick spots.

×

10-Day Weather Forecast

Almanac

Astronomy

Feb. 27, 2015 Rise Set
Actual Time
Civil Twilight
Nautical Twilight
Astronomical Twilight
Moon
Length of Visible Light
Length of Day
Tomorrow will be .
, % of the Moon is Illuminated

Today's Extremes

State Highs State Lows

Community

WunderPhotos

Upload Photos

1,800,972 photos uploaded!

WunderBlogs® & News

Nearby

Air Quality

  Air Quality AQ Index Pollutant
Not available.

Snow Depth

Station Depth Elevation

Earthquake Activity

City Distance Mag. Time & Date
Minimum magnitude displayed is 2.5.

Coastal Water Temperatures

Place Temperature

Nearby Weather Stations

Winter Weather Advisory
Statement as of 10:02 PM CST on February 27, 2015

... Winter Weather Advisory remains in effect until 10 am CST
Saturday...

* timing... late this afternoon through Saturday morning.

* Main impact... light freezing rain and freezing drizzle leading
to ice accumulations of less than 1/10 of an inch... mainly on
bridges... overpasses... less traveled roadways and other
elevated surfaces.

Precautionary/preparedness actions...

A Winter Weather Advisory means that periods of snow... sleet... or
freezing rain will cause travel difficulties. Be prepared for
slippery roads and limited visibilities... and use caution while
driving.